Sainte-Anne-De-Beaupre, Canada
Current Conditions -  °F | °C
As of 11:00 PM on Thursday 18 Dec 2014 (Local Time) from CYQB Reporting Station
Scattered Clouds Scattered Clouds  
Wind Chill: 15°   Ceiling: Unl
Heat Index: 25°   Visibility: 15mi
Dew Point: 18°   Wind: 9mph
Humidity: 74%   Direction: 240°WSW
Pressure: 29.84"   Gusts: NA
Location:  47.02°N, 70.93°W
Report Text: CYQB 190400Z 24008KT 220V290 15SM SCT062 M04/M08 A2984 RMK SC3 SLP110
Loading
Personal Weather Stations






























Interactive Weather Map New forecast layout! Learn more

10-Day Weather Forecast

Advertisements
Track Severe Weather on mobile